createdAt,value
2019-03-16T00:00:13.300Z,7.95
2019-03-16T00:05:23.489Z,7.78
2019-03-16T00:10:32.868Z,7.91
2019-03-16T00:15:40.040Z,7.68
2019-03-16T00:20:48.321Z,7.78
2019-03-16T00:25:55.873Z,7.82
2019-03-16T00:31:03.168Z,7.76
2019-03-16T00:36:12.272Z,7.81
2019-03-16T00:41:23.208Z,7.61
2019-03-16T00:46:31.169Z,7.52
2019-03-16T00:51:38.898Z,7.52
2019-03-16T00:56:46.779Z,7.58
2019-03-16T01:01:55.645Z,7.75
2019-03-16T01:07:02.872Z,7.99
2019-03-16T01:12:11.578Z,7.55
2019-03-16T01:17:19.247Z,7.47
2019-03-16T01:22:28.114Z,7.58
2019-03-16T01:27:36.366Z,7.45
2019-03-16T01:32:45.724Z,7.26
2019-03-16T01:37:53.373Z,7.84
2019-03-16T01:43:00.336Z,7.65
2019-03-16T01:48:07.488Z,7.73
2019-03-16T01:53:16.610Z,7.72
2019-03-16T01:58:23.671Z,7.79
2019-03-16T02:03:30.346Z,7.46
2019-03-16T02:08:36.682Z,8.00
2019-03-16T02:13:42.599Z,7.50
2019-03-16T02:18:51.250Z,7.74
2019-03-16T02:23:57.993Z,7.32
2019-03-16T02:29:07.321Z,7.48
2019-03-16T02:34:15.305Z,7.39
2019-03-16T02:39:23.178Z,7.62
2019-03-16T02:44:31.759Z,7.40
2019-03-16T02:49:40.915Z,7.37
2019-03-16T02:54:48.091Z,7.49
2019-03-16T02:59:56.906Z,7.91
2019-03-16T03:05:03.574Z,7.44
2019-03-16T03:10:11.829Z,7.34
2019-03-16T03:15:18.089Z,7.35
2019-03-16T03:20:26.269Z,7.38
2019-03-16T03:25:33.358Z,7.47
2019-03-16T03:30:41.265Z,7.56
2019-03-16T03:35:48.429Z,7.72
2019-03-16T03:40:55.163Z,7.89
2019-03-16T03:46:02.399Z,7.44
2019-03-16T03:51:09.780Z,7.32
2019-03-16T03:56:17.039Z,7.26
2019-03-16T04:01:23.500Z,7.80
2019-03-16T04:06:29.720Z,7.64
2019-03-16T04:11:38.540Z,7.78
2019-03-16T04:16:46.948Z,7.32
2019-03-16T04:21:56.328Z,7.31
2019-03-16T04:27:16.093Z,7.31
2019-03-16T04:32:16.841Z,7.60
2019-03-16T04:37:25.325Z,7.18
2019-03-16T04:42:33.768Z,7.63
2019-03-16T04:47:40.925Z,7.46
2019-03-16T04:52:51.020Z,7.20
2019-03-16T04:57:57.064Z,7.25
2019-03-16T05:03:08.170Z,7.30
2019-03-16T05:08:16.489Z,6.94
2019-03-16T05:13:24.734Z,7.41
2019-03-16T05:18:32.883Z,7.12
2019-03-16T05:23:42.182Z,7.32
2019-03-16T05:28:49.465Z,7.63
2019-03-16T05:33:56.113Z,7.56
2019-03-16T05:39:03.502Z,7.25
2019-03-16T05:44:09.423Z,7.63
2019-03-16T05:49:16.003Z,7.48
2019-03-16T05:54:21.555Z,7.32
2019-03-16T05:59:27.318Z,7.40
2019-03-16T06:04:33.768Z,7.36
2019-03-16T06:09:39.401Z,7.24
2019-03-16T06:14:44.943Z,7.48
2019-03-16T06:19:50.534Z,7.49
2019-03-16T06:24:56.510Z,7.78
2019-03-16T06:30:02.644Z,7.95
2019-03-16T06:35:23.408Z,8.16
2019-03-16T06:40:17.125Z,7.74
2019-03-16T06:45:23.920Z,8.08
2019-03-16T06:50:30.061Z,8.17
2019-03-16T06:55:37.263Z,8.49
2019-03-16T07:00:43.059Z,8.31
2019-03-16T07:05:48.853Z,8.55
2019-03-16T07:10:54.637Z,8.37
2019-03-16T07:16:00.281Z,7.93
2019-03-16T07:21:07.602Z,8.26
2019-03-16T07:26:15.151Z,8.40
2019-03-16T07:31:21.334Z,8.69
2019-03-16T07:36:26.963Z,8.43
2019-03-16T07:41:34.505Z,8.45
2019-03-16T07:46:40.157Z,8.78
2019-03-16T07:51:46.269Z,8.39
2019-03-16T07:56:53.449Z,8.77
2019-03-16T08:01:59.328Z,8.78
2019-03-16T08:07:06.746Z,8.29
2019-03-16T08:12:14.005Z,8.35
2019-03-16T08:17:20.217Z,8.69
2019-03-16T08:22:27.398Z,9.11
2019-03-16T08:27:33.317Z,8.31
2019-03-16T08:32:40.510Z,8.33
2019-03-16T08:37:47.059Z,8.75
2019-03-16T08:42:52.721Z,8.77
2019-03-16T08:48:02.662Z,9.07
2019-03-16T08:53:10.190Z,9.21
2019-03-16T08:58:16.264Z,8.66
2019-03-16T09:03:22.499Z,9.81
2019-03-16T09:08:29.091Z,9.10
2019-03-16T09:13:35.518Z,9.42
2019-03-16T09:18:41.340Z,9.50
2019-03-16T09:23:47.382Z,9.32
2019-03-16T09:29:00.081Z,9.34
2019-03-16T09:34:03.644Z,10.11
2019-03-16T09:39:10.393Z,10.17
2019-03-16T09:44:16.751Z,9.89
2019-03-16T09:49:22.781Z,10.24
2019-03-16T09:54:29.606Z,10.49
2019-03-16T09:59:36.116Z,10.49
2019-03-16T10:04:43.441Z,10.19
2019-03-16T10:09:52.795Z,9.76
2019-03-16T10:14:59.369Z,9.92
2019-03-16T10:20:14.487Z,10.21
2019-03-16T10:25:21.017Z,10.52
2019-03-16T10:30:27.104Z,10.22
2019-03-16T10:35:34.534Z,10.27
2019-03-16T10:40:40.522Z,10.52
2019-03-16T10:45:46.174Z,9.97
2019-03-16T10:50:52.451Z,9.91
2019-03-16T10:56:00.238Z,10.24
2019-03-16T11:01:05.887Z,9.67
2019-03-16T11:06:11.907Z,9.88
2019-03-16T11:11:17.673Z,9.71
2019-03-16T11:16:23.616Z,10.40
2019-03-16T11:21:30.758Z,10.39
2019-03-16T11:26:38.477Z,9.95
2019-03-16T11:31:44.527Z,9.62
2019-03-16T11:36:52.213Z,9.53
2019-03-16T11:41:58.250Z,9.42
2019-03-16T11:47:04.440Z,9.69
2019-03-16T11:52:10.896Z,9.14
2019-03-16T11:57:17.672Z,9.56
2019-03-16T12:02:23.891Z,9.49
2019-03-16T12:07:29.682Z,9.35
2019-03-16T12:12:36.381Z,8.96
2019-03-16T12:17:45.709Z,8.92
2019-03-16T12:22:54.573Z,8.68
2019-03-16T12:28:01.329Z,9.21
2019-03-16T12:33:07.173Z,8.73
2019-03-16T12:38:12.839Z,8.43
2019-03-16T12:43:18.789Z,8.63
2019-03-16T12:48:25.384Z,8.16
2019-03-16T12:53:30.935Z,8.60
2019-03-16T12:58:37.849Z,8.87
2019-03-16T13:03:43.410Z,8.99
2019-03-16T13:08:49.039Z,8.32
2019-03-16T13:13:54.808Z,8.38
2019-03-16T13:19:00.420Z,8.47
2019-03-16T13:24:06.055Z,8.95
2019-03-16T13:29:11.949Z,8.09
2019-03-16T13:34:17.519Z,8.72
2019-03-16T13:39:25.022Z,8.89
2019-03-16T13:44:32.199Z,8.63
2019-03-16T13:49:37.780Z,8.12
2019-03-16T13:54:43.524Z,8.24
2019-03-16T13:59:49.609Z,8.56
2019-03-16T14:04:56.288Z,8.82
2019-03-16T14:10:05.160Z,8.23
2019-03-16T14:15:11.240Z,8.55
2019-03-16T14:20:17.630Z,8.52
2019-03-16T14:25:23.812Z,8.48
2019-03-16T14:30:40.855Z,8.59
2019-03-16T14:35:39.976Z,8.69
2019-03-16T14:40:45.752Z,8.98
2019-03-16T14:45:52.154Z,9.19
2019-03-16T14:50:57.941Z,9.10
2019-03-16T14:56:03.829Z,9.07
2019-03-16T15:01:13.299Z,8.85
2019-03-16T15:06:23.207Z,8.91
2019-03-16T15:11:30.655Z,9.09
2019-03-16T15:16:38.169Z,9.00
2019-03-16T15:21:43.928Z,9.03
2019-03-16T15:26:49.645Z,8.92
2019-03-16T15:31:56.519Z,8.97
2019-03-16T15:37:02.990Z,9.02
2019-03-16T15:42:08.912Z,9.06
2019-03-16T15:47:16.115Z,9.24
2019-03-16T15:52:21.821Z,9.24
2019-03-16T15:57:27.981Z,9.06
2019-03-16T16:02:34.506Z,9.02
2019-03-16T16:07:41.354Z,9.04
2019-03-16T16:12:46.913Z,9.13
2019-03-16T16:17:52.745Z,9.22
2019-03-16T16:22:59.095Z,9.37
2019-03-16T16:28:04.736Z,9.35
2019-03-16T16:33:10.568Z,9.27
2019-03-16T16:38:16.688Z,9.46
2019-03-16T16:43:22.550Z,9.48
2019-03-16T16:48:28.526Z,9.43
2019-03-16T16:53:34.825Z,9.50
2019-03-16T16:58:41.114Z,9.57
2019-03-16T17:03:48.965Z,9.62
2019-03-16T17:08:54.959Z,9.54
2019-03-16T17:14:02.370Z,9.43
2019-03-16T17:19:10.317Z,9.47
2019-03-16T17:24:18.026Z,9.74
2019-03-16T17:29:23.785Z,9.74
2019-03-16T17:34:30.630Z,9.88
2019-03-16T17:39:37.381Z,9.80
2019-03-16T17:44:43.517Z,9.75
2019-03-16T17:49:49.104Z,9.72
2019-03-16T17:54:54.933Z,9.83
2019-03-16T18:00:00.936Z,9.98
2019-03-16T18:05:09.396Z,10.00
2019-03-16T18:10:16.626Z,10.12
2019-03-16T18:15:22.858Z,9.84
2019-03-16T18:20:29.801Z,10.01
2019-03-16T18:25:37.995Z,10.05
2019-03-16T18:30:44.660Z,10.15
2019-03-16T18:35:50.670Z,9.92
2019-03-16T18:40:56.440Z,10.22
2019-03-16T18:46:03.957Z,10.24
2019-03-16T18:51:09.965Z,10.19
2019-03-16T18:56:15.899Z,10.56
2019-03-16T19:01:21.624Z,10.61
2019-03-16T19:06:29.611Z,10.63
2019-03-16T19:11:37.486Z,10.72
2019-03-16T19:16:44.178Z,10.75
2019-03-16T19:21:51.340Z,10.60
2019-03-16T19:26:58.162Z,10.78
2019-03-16T19:32:05.274Z,10.62
2019-03-16T19:37:12.169Z,11.00
2019-03-16T19:42:21.866Z,10.84
2019-03-16T19:47:29.874Z,11.02
2019-03-16T19:52:38.562Z,10.89
2019-03-16T19:57:46.311Z,11.16
2019-03-16T20:02:54.097Z,11.27
2019-03-16T20:08:00.039Z,11.39
2019-03-16T20:13:07.845Z,11.29
2019-03-16T20:18:14.317Z,11.61
2019-03-16T20:23:21.541Z,11.32
2019-03-16T20:28:29.643Z,11.63
2019-03-16T20:33:37.688Z,12.08
2019-03-16T20:38:44.393Z,11.85
2019-03-16T20:43:51.901Z,11.87
2019-03-16T20:49:03.483Z,11.92
2019-03-16T20:54:10.347Z,11.34
2019-03-16T20:59:19.232Z,11.44
2019-03-16T21:04:25.705Z,11.51
2019-03-16T21:09:31.576Z,11.65
2019-03-16T21:14:38.097Z,11.68
2019-03-16T21:19:45.978Z,11.38
2019-03-16T21:24:53.478Z,11.64
2019-03-16T21:29:59.319Z,11.60
2019-03-16T21:35:07.511Z,11.61
2019-03-16T21:40:14.831Z,11.67
2019-03-16T21:45:20.781Z,11.60
2019-03-16T21:50:31.442Z,11.62
2019-03-16T21:55:38.604Z,11.77
2019-03-16T22:00:45.001Z,11.98
2019-03-16T22:05:52.214Z,11.71
2019-03-16T22:10:57.879Z,11.90
2019-03-16T22:16:04.364Z,11.80
2019-03-16T22:21:11.385Z,11.77
2019-03-16T22:26:17.028Z,11.90
2019-03-16T22:31:22.583Z,12.06
2019-03-16T22:36:28.831Z,12.14
2019-03-16T22:41:34.496Z,12.27
2019-03-16T22:46:40.765Z,11.70
2019-03-16T22:51:46.498Z,11.55
2019-03-16T22:56:52.904Z,12.05
2019-03-16T23:01:59.104Z,11.72
2019-03-16T23:07:05.579Z,11.49
2019-03-16T23:12:12.567Z,11.74
2019-03-16T23:17:19.739Z,11.47
2019-03-16T23:22:27.615Z,11.26
2019-03-16T23:27:34.280Z,11.68
2019-03-16T23:32:40.594Z,11.58
2019-03-16T23:37:46.626Z,11.96
2019-03-16T23:42:53.113Z,11.84
2019-03-16T23:48:00.828Z,11.41
2019-03-16T23:53:08.047Z,11.27
2019-03-16T23:58:15.343Z,11.42
